Time;durP1;ratioP1;P1;durP2;ratioP2;P2;SDS_P1;SDS_P2;PMS_P1;PMS_P2;Temp;Humidity;BMP_temperature;BMP_pressure;BME280_temperature;BME280_humidity;BME280_pressure;Samples;Min_cycle;Max_cycle;Signal;HPM_P1;HPM_P2
2023/12/04 00:00:45;;;;;;;0.30;0.30;;;-0.10;99.90;;;;;;5092610;28;20559;-82
2023/12/04 00:03:11;;;;;;;0.30;0.30;;;-0.10;99.90;;;;;;5092027;28;20192;-82
2023/12/04 00:05:36;;;;;;;0.30;0.30;;;-0.10;99.90;;;;;;5090982;28;20775;-73
2023/12/04 00:08:02;;;;;;;0.30;0.30;;;-0.10;99.90;;;;;;5092223;28;20243;-82
2023/12/04 00:10:28;;;;;;;0.30;0.30;;;-0.20;99.90;;;;;;5092031;28;20263;-73
2023/12/04 00:12:54;;;;;;;0.30;0.30;;;-0.30;99.90;;;;;;5091024;28;20210;-82
2023/12/04 00:15:21;;;;;;;0.30;0.30;;;-0.30;99.90;;;;;;5090176;28;20381;-82
2023/12/04 00:17:47;;;;;;;0.30;0.30;;;-0.30;99.90;;;;;;5089633;28;20212;-73
2023/12/04 00:20:12;;;;;;;0.30;0.30;;;-0.30;99.90;;;;;;5090451;28;20177;-73
2023/12/04 00:22:38;;;;;;;0.30;0.30;;;-0.40;99.90;;;;;;5092206;28;20535;-79
2023/12/04 00:25:05;;;;;;;0.30;0.30;;;-0.40;99.90;;;;;;5091791;28;20177;-73
2023/12/04 00:27:31;;;;;;;0.30;0.30;;;-0.40;99.90;;;;;;5091751;28;20629;-82
2023/12/04 00:29:57;;;;;;;0.30;0.30;;;-0.50;99.90;;;;;;5091598;28;20271;-82
2023/12/04 00:32:23;;;;;;;0.30;0.30;;;-0.50;99.90;;;;;;5091809;28;20172;-78
2023/12/04 00:34:49;;;;;;;0.30;0.30;;;-0.50;99.90;;;;;;5091634;28;20202;-80
2023/12/04 00:37:14;;;;;;;0.30;0.30;;;-0.50;99.90;;;;;;5091393;28;20248;-78
2023/12/04 00:39:40;;;;;;;0.30;0.30;;;-0.60;99.90;;;;;;5091467;28;20203;-73
2023/12/04 00:42:05;;;;;;;0.30;0.30;;;-0.50;99.90;;;;;;5090224;28;20255;-80
2023/12/04 00:44:31;;;;;;;0.30;0.30;;;-0.60;99.90;;;;;;5091194;28;20208;-73
2023/12/04 00:46:57;;;;;;;0.30;0.30;;;-0.50;99.90;;;;;;5090289;28;20184;-73
2023/12/04 00:49:23;;;;;;;0.30;0.30;;;-0.60;99.90;;;;;;5089744;28;20192;-73
2023/12/04 00:51:49;;;;;;;0.30;0.30;;;-0.60;99.90;;;;;;5090075;28;20187;-73
2023/12/04 00:54:14;;;;;;;0.30;0.30;;;-0.60;99.90;;;;;;5091294;28;20204;-82
2023/12/04 00:56:41;;;;;;;0.30;0.30;;;-0.60;99.90;;;;;;5090963;28;20169;-81
2023/12/04 00:59:08;;;;;;;0.30;0.30;;;-0.70;99.90;;;;;;5090707;28;20700;-81
2023/12/04 01:01:35;;;;;;;0.30;0.30;;;-0.70;99.90;;;;;;5091288;28;20175;-82
2023/12/04 01:04:01;;;;;;;0.30;0.30;;;-0.70;99.90;;;;;;5089660;28;20201;-73
2023/12/04 01:06:27;;;;;;;0.30;0.30;;;-0.70;99.90;;;;;;5090732;28;20179;-73
2023/12/04 01:08:54;;;;;;;0.30;0.30;;;-0.70;99.90;;;;;;5089703;28;20854;-82
2023/12/04 01:11:20;;;;;;;0.30;0.30;;;-0.70;99.90;;;;;;5090817;28;20173;-82
2023/12/04 01:13:46;;;;;;;0.30;0.30;;;-0.70;99.90;;;;;;5091067;28;20786;-82
2023/12/04 01:16:12;;;;;;;0.30;0.30;;;-0.70;99.90;;;;;;5090281;28;20644;-75
2023/12/04 01:18:37;;;;;;;0.30;0.30;;;-0.70;99.90;;;;;;5090848;28;20216;-73
2023/12/04 01:21:03;;;;;;;0.30;0.30;;;-0.80;99.90;;;;;;5090864;28;20410;-82
2023/12/04 01:23:29;;;;;;;0.30;0.30;;;-0.80;99.90;;;;;;5090688;28;20185;-82
2023/12/04 01:25:54;;;;;;;0.30;0.30;;;-0.80;99.90;;;;;;5090711;28;20267;-74
2023/12/04 01:28:20;;;;;;;0.30;0.30;;;-0.80;99.90;;;;;;5090564;28;20196;-72
2023/12/04 01:30:46;;;;;;;0.30;0.30;;;-0.80;99.90;;;;;;5089027;28;20188;-81
2023/12/04 01:33:11;;;;;;;0.30;0.30;;;-0.80;99.90;;;;;;5090573;28;20673;-72
2023/12/04 01:35:37;;;;;;;0.30;0.30;;;-0.90;99.90;;;;;;5089469;28;20180;-81
2023/12/04 01:38:03;;;;;;;0.30;0.30;;;-0.90;99.90;;;;;;5090429;28;20219;-72
2023/12/04 01:40:28;;;;;;;0.30;0.30;;;-0.90;99.90;;;;;;5090508;28;20645;-73
2023/12/04 01:42:54;;;;;;;0.30;0.30;;;-0.90;99.90;;;;;;5090205;28;20197;-82
2023/12/04 01:45:19;;;;;;;0.30;0.30;;;-0.90;99.90;;;;;;5088546;28;20189;-82
2023/12/04 01:47:46;;;;;;;0.30;0.30;;;-0.90;99.90;;;;;;5090054;28;20547;-81
2023/12/04 01:50:12;;;;;;;0.30;0.30;;;-0.90;99.90;;;;;;5089976;28;20180;-82
2023/12/04 01:52:39;;;;;;;0.30;0.30;;;-0.90;99.90;;;;;;5088841;28;20180;-77
2023/12/04 01:55:06;;;;;;;0.30;0.30;;;-0.90;99.90;;;;;;5090487;28;20184;-72
2023/12/04 01:57:32;;;;;;;0.30;0.30;;;-0.90;99.90;;;;;;5087874;28;20536;-81
2023/12/04 01:59:58;;;;;;;0.30;0.30;;;-1.00;99.90;;;;;;5088529;28;22111;-73
2023/12/04 02:02:24;;;;;;;0.30;0.30;;;-1.00;99.90;;;;;;5088765;28;20396;-73
2023/12/04 02:04:50;;;;;;;0.30;0.30;;;-1.00;99.90;;;;;;5089783;28;20200;-73
2023/12/04 02:07:15;;;;;;;0.30;0.30;;;-1.10;99.90;;;;;;5088602;28;20180;-77
2023/12/04 02:09:41;;;;;;;0.30;0.30;;;-1.10;99.90;;;;;;5089824;28;20199;-82
2023/12/04 02:12:07;;;;;;;0.30;0.30;;;-1.10;99.90;;;;;;5089904;28;20389;-80
2023/12/04 02:14:32;;;;;;;0.30;0.30;;;-1.10;99.90;;;;;;5090118;28;20193;-73
2023/12/04 02:17:00;;;;;;;0.30;0.30;;;-1.10;99.90;;;;;;5089786;28;20311;-73
2023/12/04 02:19:26;;;;;;;0.30;0.30;;;-1.20;99.90;;;;;;5088020;28;20671;-82
2023/12/04 02:21:51;;;;;;;0.30;0.30;;;-1.20;99.90;;;;;;5088705;28;20275;-73
2023/12/04 02:24:17;;;;;;;0.30;0.30;;;-1.20;99.90;;;;;;5089246;28;20188;-82
2023/12/04 02:26:57;;;;;;;0.30;0.30;;;-1.20;99.90;;;;;;5088666;28;20189;-73
2023/12/04 02:29:29;;;;;;;0.30;0.30;;;-1.20;99.90;;;;;;5088222;28;20569;-82
2023/12/04 02:31:58;;;;;;;0.30;0.30;;;-1.20;99.90;;;;;;5090207;28;20691;-81
2023/12/04 02:34:24;;;;;;;0.30;0.30;;;-1.20;99.90;;;;;;5087926;28;20196;-73
2023/12/04 02:36:52;;;;;;;0.30;0.30;;;-1.20;99.90;;;;;;5089976;28;20702;-83
2023/12/04 02:39:18;;;;;;;0.30;0.30;;;-1.20;99.90;;;;;;5089533;28;20263;-82
2023/12/04 02:41:44;;;;;;;0.30;0.30;;;-1.30;99.90;;;;;;5086937;28;20264;-74
2023/12/04 02:44:10;;;;;;;0.30;0.30;;;-1.30;99.90;;;;;;5088283;28;20329;-73
2023/12/04 02:46:35;;;;;;;0.30;0.30;;;-1.30;99.90;;;;;;5087926;28;20668;-82
2023/12/04 02:49:01;;;;;;;0.30;0.30;;;-1.20;99.90;;;;;;5089798;28;20564;-73
2023/12/04 02:51:27;;;;;;;0.30;0.30;;;-1.30;99.90;;;;;;5088891;28;20771;-82
2023/12/04 02:53:52;;;;;;;0.30;0.30;;;-1.30;99.90;;;;;;5090014;28;20192;-73
2023/12/04 02:56:18;;;;;;;0.30;0.30;;;-1.20;99.90;;;;;;5087593;28;20892;-73
2023/12/04 02:58:44;;;;;;;0.30;0.30;;;-1.20;99.90;;;;;;5088482;28;20300;-82
2023/12/04 03:01:09;;;;;;;0.30;0.30;;;-1.30;99.90;;;;;;5087660;28;20180;-72
2023/12/04 03:03:35;;;;;;;0.30;0.30;;;-1.30;99.90;;;;;;5089357;28;20580;-73
2023/12/04 03:06:01;;;;;;;0.30;0.30;;;-1.40;99.90;;;;;;5087828;28;20184;-82
2023/12/04 03:08:26;;;;;;;0.30;0.30;;;-1.40;99.90;;;;;;5087908;28;20535;-72
2023/12/04 03:10:52;;;;;;;0.30;0.30;;;-1.40;99.90;;;;;;5087703;28;20267;-82
2023/12/04 03:13:17;;;;;;;0.30;0.30;;;-1.40;99.90;;;;;;5087930;28;20609;-82
2023/12/04 03:15:43;;;;;;;0.30;0.30;;;-1.50;99.90;;;;;;5087423;28;20263;-73
2023/12/04 03:18:09;;;;;;;0.30;0.30;;;-1.50;99.90;;;;;;5087880;28;20593;-82
2023/12/04 03:20:34;;;;;;;0.30;0.30;;;-1.50;99.90;;;;;;5087807;28;20290;-73
2023/12/04 03:23:00;;;;;;;0.30;0.30;;;-1.50;99.90;;;;;;5088605;28;20245;-72
2023/12/04 03:25:25;;;;;;;0.30;0.30;;;-1.60;99.90;;;;;;5089021;28;20392;-73
2023/12/04 03:27:51;;;;;;;0.30;0.30;;;-1.50;99.90;;;;;;5087819;28;20176;-73
2023/12/04 03:30:17;;;;;;;0.30;0.30;;;-1.50;99.90;;;;;;5087708;28;20515;-73
2023/12/04 03:32:43;;;;;;;0.30;0.30;;;-1.60;99.90;;;;;;5088766;28;20173;-82
2023/12/04 03:35:08;;;;;;;0.30;0.30;;;-1.50;99.90;;;;;;5087622;28;20647;-82
2023/12/04 03:37:34;;;;;;;0.30;0.30;;;-1.50;99.90;;;;;;5087605;28;20234;-73
2023/12/04 03:40:00;;;;;;;0.30;0.30;;;-1.50;99.90;;;;;;5087314;28;20184;-73
2023/12/04 03:42:25;;;;;;;0.30;0.30;;;-1.40;99.90;;;;;;5087668;28;20355;-80
2023/12/04 03:44:51;;;;;;;0.30;0.30;;;-1.40;99.90;;;;;;5087109;28;20193;-82
2023/12/04 03:47:16;;;;;;;0.30;0.30;;;-1.40;99.90;;;;;;5088771;28;20450;-81
2023/12/04 03:49:42;;;;;;;0.30;0.30;;;-1.50;99.90;;;;;;5088270;28;20250;-73
2023/12/04 03:52:08;;;;;;;0.30;0.30;;;-1.60;99.90;;;;;;5089145;28;20173;-81
2023/12/04 03:54:33;;;;;;;0.30;0.30;;;-1.50;99.90;;;;;;5091665;28;20247;-78
2023/12/04 03:56:59;;;;;;;0.30;0.30;;;-1.50;99.90;;;;;;5091452;28;20432;-73
2023/12/04 03:59:25;;;;;;;0.30;0.30;;;-1.50;99.90;;;;;;5091979;28;20357;-74
2023/12/04 04:01:50;;;;;;;0.30;0.30;;;-1.50;99.90;;;;;;5090467;28;20184;-82
2023/12/04 04:04:16;;;;;;;0.30;0.30;;;-1.50;99.90;;;;;;5090573;28;20250;-82
2023/12/04 04:06:41;;;;;;;0.30;0.30;;;-1.50;99.90;;;;;;5090958;28;20195;-73
2023/12/04 04:09:07;;;;;;;0.30;0.30;;;-1.50;99.90;;;;;;5092232;28;20197;-82
2023/12/04 04:11:33;;;;;;;0.30;0.30;;;-1.60;99.90;;;;;;5091885;28;20181;-82
2023/12/04 04:13:58;;;;;;;0.30;0.30;;;-1.60;99.90;;;;;;5091988;28;20712;-73
2023/12/04 04:16:24;;;;;;;0.30;0.30;;;-1.60;99.90;;;;;;5090417;28;20236;-73
2023/12/04 04:18:50;;;;;;;0.30;0.30;;;-1.60;99.90;;;;;;5090767;28;20219;-81
2023/12/04 04:21:15;;;;;;;0.30;0.30;;;-1.60;99.90;;;;;;5090456;28;20177;-82
2023/12/04 04:23:41;;;;;;;0.40;0.40;;;-1.70;99.90;;;;;;5090696;28;20200;-82
2023/12/04 04:26:07;;;;;;;0.30;0.30;;;-1.70;99.90;;;;;;5091567;28;20177;-82
2023/12/04 04:28:32;;;;;;;0.30;0.30;;;-1.70;99.90;;;;;;5092028;28;20322;-81
2023/12/04 04:30:58;;;;;;;0.30;0.30;;;-1.70;99.90;;;;;;5090311;28;20423;-76
2023/12/04 04:33:24;;;;;;;0.30;0.30;;;-1.80;99.90;;;;;;5092273;28;20456;-75
2023/12/04 04:35:49;;;;;;;0.30;0.30;;;-1.80;99.90;;;;;;5091786;28;20185;-81
2023/12/04 04:38:15;;;;;;;0.30;0.30;;;-1.90;99.90;;;;;;5090152;28;20289;-81
2023/12/04 04:40:43;;;;;;;0.30;0.30;;;-1.80;99.90;;;;;;5091268;28;20183;-82
2023/12/04 04:43:11;;;;;;;0.30;0.30;;;-1.90;99.90;;;;;;5090089;28;20232;-81
2023/12/04 04:45:36;;;;;;;0.30;0.30;;;-1.80;99.90;;;;;;5090102;28;20267;-73
2023/12/04 04:48:02;;;;;;;0.30;0.30;;;-1.80;99.90;;;;;;5091314;28;20621;-73
2023/12/04 04:50:28;;;;;;;0.30;0.30;;;-1.90;99.90;;;;;;5091186;28;20180;-81
2023/12/04 04:52:53;;;;;;;0.30;0.30;;;-1.80;99.90;;;;;;5089913;28;20231;-81
2023/12/04 04:55:19;;;;;;;0.30;0.30;;;-1.80;99.90;;;;;;5091265;28;20185;-72
2023/12/04 04:57:44;;;;;;;0.30;0.30;;;-1.80;99.90;;;;;;5091207;28;20600;-81
2023/12/04 05:00:11;;;;;;;0.30;0.30;;;-1.70;99.90;;;;;;5091369;28;20271;-73
2023/12/04 05:02:36;;;;;;;0.30;0.30;;;-1.60;99.90;;;;;;5090709;28;20176;-72
2023/12/04 05:05:03;;;;;;;0.30;0.30;;;-1.50;99.90;;;;;;5090074;28;20175;-73
2023/12/04 05:07:29;;;;;;;0.30;0.30;;;-1.50;99.90;;;;;;5090318;28;20167;-80
2023/12/04 05:09:55;;;;;;;0.30;0.30;;;-1.40;99.90;;;;;;5088781;28;20196;-80
2023/12/04 05:12:20;;;;;;;0.30;0.30;;;-1.40;99.90;;;;;;5089497;28;20177;-79
2023/12/04 05:14:46;;;;;;;0.30;0.30;;;-1.30;99.90;;;;;;5090531;28;20192;-72
2023/12/04 05:17:11;;;;;;;0.30;0.30;;;-1.30;99.90;;;;;;5069799;28;20193;-83
2023/12/04 05:19:37;;;;;;;0.30;0.30;;;-1.30;99.90;;;;;;5068003;28;20209;-72
2023/12/04 05:22:03;;;;;;;0.30;0.30;;;-1.30;99.90;;;;;;5075075;28;20463;-76
2023/12/04 05:24:28;;;;;;;0.30;0.30;;;-1.30;99.90;;;;;;5076862;28;20368;-80
2023/12/04 05:26:54;;;;;;;0.30;0.30;;;-1.30;99.90;;;;;;5082250;28;20180;-80
2023/12/04 05:29:20;;;;;;;0.30;0.30;;;-1.40;99.90;;;;;;5071152;28;20850;-81
2023/12/04 05:31:46;;;;;;;0.30;0.30;;;-1.40;99.90;;;;;;5068016;28;20177;-80
2023/12/04 05:34:12;;;;;;;0.30;0.30;;;-1.40;99.90;;;;;;5066477;28;20301;-72
2023/12/04 05:36:38;;;;;;;0.30;0.30;;;-1.40;99.90;;;;;;5061241;28;20209;-72
2023/12/04 05:39:04;;;;;;;0.30;0.30;;;-1.30;99.90;;;;;;5063703;28;20477;-71
2023/12/04 05:41:30;;;;;;;0.30;0.30;;;-1.30;99.90;;;;;;5064275;28;20632;-81
2023/12/04 05:43:56;;;;;;;0.30;0.30;;;-1.30;99.90;;;;;;5059547;28;20205;-72
2023/12/04 05:46:21;;;;;;;0.30;0.30;;;-1.30;99.90;;;;;;5060831;28;20185;-71
2023/12/04 05:48:48;;;;;;;0.30;0.30;;;-1.30;99.90;;;;;;5062395;28;20197;-81
2023/12/04 05:51:15;;;;;;;0.30;0.30;;;-1.30;99.90;;;;;;5062054;28;20196;-81
2023/12/04 05:53:41;;;;;;;0.30;0.30;;;-1.30;99.90;;;;;;5063149;28;20225;-81
2023/12/04 05:56:08;;;;;;;0.30;0.30;;;-1.30;99.90;;;;;;5066538;28;20281;-71
2023/12/04 05:58:34;;;;;;;0.30;0.30;;;-1.20;99.90;;;;;;5063334;28;20972;-72
2023/12/04 06:01:00;;;;;;;0.30;0.30;;;-1.20;99.90;;;;;;5069166;28;20195;-72
2023/12/04 06:03:26;;;;;;;0.30;0.30;;;-1.20;99.90;;;;;;5076041;28;20487;-72
2023/12/04 06:05:51;;;;;;;0.30;0.30;;;-1.20;99.90;;;;;;5080329;28;20194;-81
2023/12/04 06:08:17;;;;;;;0.30;0.30;;;-1.20;99.90;;;;;;5070160;28;20204;-71
2023/12/04 06:10:43;;;;;;;0.30;0.30;;;-1.20;99.90;;;;;;5076212;28;20411;-71
2023/12/04 06:13:08;;;;;;;0.30;0.30;;;-1.30;99.90;;;;;;5068741;28;20204;-74
2023/12/04 06:15:34;;;;;;;0.30;0.30;;;-1.30;99.90;;;;;;5080908;28;20236;-78
2023/12/04 06:18:00;;;;;;;0.30;0.30;;;-1.30;99.90;;;;;;5096579;28;20295;-79
2023/12/04 06:20:26;;;;;;;0.30;0.30;;;-1.30;99.90;;;;;;5094477;28;20402;-74
2023/12/04 06:22:51;;;;;;;0.30;0.30;;;-1.30;99.90;;;;;;5097678;28;20309;-78
2023/12/04 06:25:18;;;;;;;0.30;0.30;;;-1.40;99.90;;;;;;5087318;28;20188;-78
2023/12/04 06:27:44;;;;;;;0.30;0.30;;;-1.40;99.90;;;;;;5092896;28;20478;-73
2023/12/04 06:30:10;;;;;;;0.30;0.30;;;-1.40;99.90;;;;;;5092377;28;20283;-78
2023/12/04 06:32:36;;;;;;;0.30;0.30;;;-1.40;99.90;;;;;;5092876;28;20969;-73
2023/12/04 06:35:03;;;;;;;0.30;0.30;;;-1.40;99.90;;;;;;5099847;28;20267;-79
2023/12/04 06:37:29;;;;;;;0.30;0.30;;;-1.50;99.90;;;;;;5085810;28;20421;-74
2023/12/04 06:39:59;;;;;;;0.30;0.30;;;-1.50;99.90;;;;;;5091923;28;20210;-78
2023/12/04 06:42:25;;;;;;;0.30;0.30;;;-1.50;99.90;;;;;;5090665;28;20407;-73
2023/12/04 06:44:51;;;;;;;0.30;0.30;;;-1.60;99.90;;;;;;5086553;28;20200;-78
2023/12/04 06:47:21;;;;;;;0.30;0.30;;;-1.60;99.90;;;;;;5081885;28;20187;-73
2023/12/04 06:49:46;;;;;;;0.30;0.30;;;-1.60;99.90;;;;;;5086165;28;20200;-73
2023/12/04 06:52:12;;;;;;;0.30;0.30;;;-1.50;99.90;;;;;;5085244;28;20186;-73
2023/12/04 06:54:38;;;;;;;0.30;0.30;;;-1.40;99.90;;;;;;5100206;28;20493;-79
2023/12/04 06:57:04;;;;;;;0.30;0.30;;;-1.30;99.90;;;;;;5079651;28;20187;-77
2023/12/04 06:59:29;;;;;;;0.30;0.30;;;-1.20;99.90;;;;;;5083022;28;20218;-74
2023/12/04 07:01:55;;;;;;;0.30;0.30;;;-1.10;99.90;;;;;;5097513;28;20560;-75
2023/12/04 07:04:21;;;;;;;0.30;0.30;;;-1.10;99.90;;;;;;5082996;28;20227;-74
2023/12/04 07:06:48;;;;;;;0.30;0.30;;;-1.10;99.90;;;;;;5078424;28;20421;-79
2023/12/04 07:09:14;;;;;;;0.30;0.30;;;-1.10;99.90;;;;;;5103380;28;20196;-74
2023/12/04 07:11:40;;;;;;;0.30;0.30;;;-1.10;99.90;;;;;;5082525;28;21050;-79
2023/12/04 07:14:06;;;;;;;0.30;0.30;;;-1.10;99.90;;;;;;5078353;28;20404;-79
2023/12/04 07:16:38;;;;;;;0.30;0.30;;;-1.10;99.90;;;;;;5080894;28;20431;-74
2023/12/04 07:19:04;;;;;;;0.30;0.30;;;-1.00;99.90;;;;;;5088606;28;20878;-74
2023/12/04 07:21:30;;;;;;;0.30;0.30;;;-0.80;99.90;;;;;;5081411;28;20208;-79
2023/12/04 07:23:55;;;;;;;0.30;0.30;;;-0.50;99.90;;;;;;5080980;28;21227;-74
2023/12/04 07:26:21;;;;;;;0.30;0.30;;;-0.10;99.90;;;;;;5079539;28;20439;-79
2023/12/04 07:28:46;;;;;;;0.30;0.30;;;0.30;99.90;;;;;;5095904;28;20671;-79
2023/12/04 07:31:12;;;;;;;3.03;2.93;;;0.80;99.90;;;;;;5087963;28;20208;-74
2023/12/04 07:33:38;;;;;;;0.30;0.30;;;1.20;99.90;;;;;;5087873;28;20201;-74
2023/12/04 07:36:04;;;;;;;0.40;0.40;;;1.80;99.90;;;;;;5094275;28;20184;-79
2023/12/04 07:38:29;;;;;;;0.30;0.30;;;2.30;99.90;;;;;;5091757;28;20212;-79
2023/12/04 07:40:55;;;;;;;0.30;0.30;;;2.90;99.90;;;;;;5093082;28;20173;-74
2023/12/04 07:43:21;;;;;;;0.30;0.30;;;3.40;99.90;;;;;;5097326;28;20787;-74
2023/12/04 07:45:47;;;;;;;0.30;0.30;;;3.80;99.90;;;;;;5095944;28;20319;-74
2023/12/04 07:48:12;;;;;;;4.57;4.37;;;4.30;99.90;;;;;;5083335;28;20200;-76
2023/12/04 07:50:38;;;;;;;0.30;0.30;;;4.70;99.90;;;;;;5084486;28;20271;-73
2023/12/04 07:53:05;;;;;;;0.30;0.30;;;5.20;99.90;;;;;;5085175;28;20483;-79
2023/12/04 07:55:31;;;;;;;0.40;0.30;;;5.80;99.90;;;;;;5084056;28;20423;-79
2023/12/04 07:57:57;;;;;;;0.30;0.30;;;6.50;99.90;;;;;;5088445;28;20280;-75
2023/12/04 08:00:23;;;;;;;0.40;0.30;;;7.10;99.90;;;;;;5084669;28;20596;-74
2023/12/04 08:02:49;;;;;;;0.40;0.40;;;7.80;99.90;;;;;;5084264;28;20260;-75
2023/12/04 08:05:15;;;;;;;0.40;0.30;;;8.50;99.90;;;;;;5091187;28;20724;-75
2023/12/04 08:07:40;;;;;;;0.40;0.30;;;9.10;99.90;;;;;;5091954;28;20181;-75
2023/12/04 08:10:06;;;;;;;0.40;0.30;;;9.60;99.90;;;;;;5090119;28;20834;-75
2023/12/04 08:12:33;;;;;;;0.40;0.30;;;10.20;99.90;;;;;;5090368;28;20200;-80
2023/12/04 08:14:59;;;;;;;0.40;0.30;;;10.60;98.80;;;;;;5080258;28;20196;-75
2023/12/04 08:17:25;;;;;;;0.40;0.30;;;11.00;98.20;;;;;;5073230;28;20177;-80
2023/12/04 08:19:51;;;;;;;0.40;0.30;;;11.30;97.30;;;;;;5078821;28;20212;-75
2023/12/04 08:22:16;;;;;;;0.40;0.30;;;11.60;96.40;;;;;;5089792;28;20425;-80
2023/12/04 08:24:43;;;;;;;1.27;1.27;;;11.80;96.10;;;;;;5097079;28;20403;-75
2023/12/04 08:27:08;;;;;;;34.50;8.73;;;11.90;95.10;;;;;;5093408;28;20822;-80
2023/12/04 08:29:34;;;;;;;0.40;0.30;;;11.90;94.40;;;;;;5089860;28;20195;-80
2023/12/04 08:32:00;;;;;;;2.93;1.47;;;11.80;94.40;;;;;;5091810;28;20237;-75
2023/12/04 08:34:27;;;;;;;2.30;1.80;;;12.10;94.40;;;;;;5091350;28;20936;-75
2023/12/04 08:36:53;;;;;;;0.40;0.20;;;12.40;93.60;;;;;;5085014;28;20435;-79
2023/12/04 08:39:19;;;;;;;0.30;0.30;;;12.90;93.00;;;;;;5089900;28;20211;-80
2023/12/04 08:41:47;;;;;;;0.70;0.70;;;13.40;92.80;;;;;;5087528;28;20542;-76
2023/12/04 08:44:13;;;;;;;0.40;0.30;;;14.00;92.00;;;;;;5090155;28;20584;-80
2023/12/04 08:46:38;;;;;;;0.40;0.23;;;14.50;90.80;;;;;;5090350;28;20435;-76
2023/12/04 08:49:04;;;;;;;0.40;0.30;;;15.10;90.10;;;;;;5097261;28;20433;-80
2023/12/04 08:51:30;;;;;;;0.40;0.30;;;15.60;87.80;;;;;;5086705;28;20185;-75
2023/12/04 08:53:56;;;;;;;0.40;0.30;;;16.10;86.70;;;;;;5080080;28;20200;-76
2023/12/04 08:56:23;;;;;;;1.33;1.23;;;16.50;84.20;;;;;;5084780;28;20425;-75
2023/12/04 08:58:50;;;;;;;0.60;0.60;;;16.90;82.10;;;;;;5093698;28;20519;-76
2023/12/04 09:01:16;;;;;;;0.40;0.30;;;17.20;80.30;;;;;;5090086;28;20441;-76
2023/12/04 09:03:41;;;;;;;0.43;0.43;;;17.40;78.50;;;;;;5084424;28;20496;-82
2023/12/04 09:06:07;;;;;;;0.40;0.30;;;17.50;76.50;;;;;;5085146;28;20474;-76
2023/12/04 09:08:34;;;;;;;0.40;0.30;;;17.40;75.20;;;;;;5084721;28;20660;-80
2023/12/04 09:11:00;;;;;;;1.63;1.53;;;17.40;75.80;;;;;;5080830;28;20611;-81
2023/12/04 09:13:25;;;;;;;0.40;0.20;;;17.50;74.90;;;;;;5078053;28;20447;-81
2023/12/04 09:15:51;;;;;;;0.40;0.30;;;17.40;72.90;;;;;;5086949;28;20731;-81
2023/12/04 09:18:17;;;;;;;0.60;0.60;;;17.00;73.70;;;;;;5087157;28;20737;-76
2023/12/04 09:20:43;;;;;;;3.47;2.93;;;16.70;74.50;;;;;;5088272;28;20453;-81
2023/12/04 09:23:09;;;;;;;0.67;0.63;;;16.40;74.00;;;;;;5080511;28;20534;-81
2023/12/04 09:25:35;;;;;;;0.40;0.30;;;16.30;74.00;;;;;;5079131;28;20176;-77
2023/12/04 09:28:01;;;;;;;0.40;0.30;;;16.30;74.40;;;;;;5077232;28;20595;-76
2023/12/04 09:30:27;;;;;;;2.07;1.43;;;16.30;74.60;;;;;;5078562;28;20408;-76
2023/12/04 09:32:53;;;;;;;0.30;0.30;;;16.40;74.00;;;;;;5077941;28;20286;-77
2023/12/04 09:35:18;;;;;;;6.47;2.10;;;16.40;73.40;;;;;;5082474;28;20687;-81
2023/12/04 09:37:45;;;;;;;7.17;6.63;;;16.30;72.80;;;;;;5087238;27;20184;-76
2023/12/04 09:40:12;;;;;;;1.13;1.07;;;15.90;72.80;;;;;;5086969;28;20799;-75
2023/12/04 09:42:39;;;;;;;0.40;0.30;;;15.40;73.30;;;;;;5083736;28;20483;-75
2023/12/04 09:45:07;;;;;;;0.40;0.30;;;14.90;74.60;;;;;;5082501;28;20493;-80
2023/12/04 09:47:34;;;;;;;0.40;0.30;;;14.50;75.80;;;;;;5076962;28;20456;-75
2023/12/04 09:50:00;;;;;;;1.43;1.40;;;14.10;74.10;;;;;;5078399;28;21178;-80
2023/12/04 09:52:30;;;;;;;0.47;0.47;;;13.60;75.30;;;;;;5081481;28;20429;-76
2023/12/04 09:54:56;;;;;;;2.00;1.00;;;13.10;76.80;;;;;;5088270;28;20433;-76
2023/12/04 09:57:24;;;;;;;0.40;0.40;;;12.50;78.30;;;;;;5075693;28;20432;-80
2023/12/04 09:59:52;;;;;;;0.40;0.30;;;12.20;78.80;;;;;;5083286;28;20312;-80
2023/12/04 10:02:18;;;;;;;0.40;0.20;;;11.70;79.50;;;;;;5092457;28;20505;-80
2023/12/04 10:04:45;;;;;;;0.40;0.20;;;11.10;82.10;;;;;;5088842;28;20960;-76
2023/12/04 10:07:11;;;;;;;0.40;0.28;;;10.70;81.40;;;;;;5087477;28;20601;-81
2023/12/04 10:09:36;;;;;;;0.40;0.30;;;10.00;83.10;;;;;;5088511;28;20199;-81
2023/12/04 10:12:02;;;;;;;0.40;0.30;;;9.40;83.40;;;;;;5081818;28;20195;-75
2023/12/04 10:14:28;;;;;;;0.40;0.30;;;9.00;85.70;;;;;;5089127;28;20835;-81
2023/12/04 10:16:53;;;;;;;0.40;0.30;;;8.80;86.20;;;;;;5085797;28;20692;-75
2023/12/04 10:19:28;;;;;;;0.40;0.30;;;8.70;86.00;;;;;;5083696;28;21129;-74
2023/12/04 10:21:56;;;;;;;0.30;0.25;;;8.60;87.60;;;;;;5079614;28;20187;-80
2023/12/04 10:24:36;;;;;;;1.95;1.85;;;8.60;86.00;;;;;;5079220;28;20284;-81
2023/12/04 10:27:08;;;;;;;0.30;0.20;;;8.40;87.10;;;;;;5071181;28;20283;-74
2023/12/04 10:30:01;;;;;;;0.30;0.20;;;8.20;86.40;;;;;;5080027;28;20216;-75
2023/12/04 10:32:26;;;;;;;0.30;0.20;;;8.00;86.20;;;;;;5082561;28;20230;-75
2023/12/04 10:34:56;;;;;;;0.40;0.30;;;7.90;87.50;;;;;;5084360;28;20228;-75
2023/12/04 10:37:23;;;;;;;0.30;0.20;;;7.70;88.10;;;;;;5088445;28;20336;-81
2023/12/04 10:39:51;;;;;;;0.30;0.30;;;7.50;89.30;;;;;;5089708;28;20230;-81
2023/12/04 10:42:32;;;;;;;28.42;26.63;;;7.20;89.60;;;;;;5098910;28;20576;-75
2023/12/04 10:44:59;;;;;;;2.38;2.28;;;6.90;90.20;;;;;;5079593;28;20421;-75
2023/12/04 10:47:32;;;;;;;0.30;0.20;;;6.80;90.80;;;;;;5073781;28;20193;-75
2023/12/04 10:49:58;;;;;;;0.30;0.30;;;6.60;91.30;;;;;;5079481;28;20258;-75
2023/12/04 10:52:24;;;;;;;0.30;0.30;;;6.50;91.70;;;;;;5081432;28;20192;-81
2023/12/04 10:54:50;;;;;;;0.30;0.20;;;6.40;91.50;;;;;;5081583;28;20212;-75
2023/12/04 10:57:39;;;;;;;0.30;0.20;;;6.30;92.20;;;;;;5078781;28;20275;-74
2023/12/04 11:00:08;;;;;;;2.38;2.25;;;6.30;92.10;;;;;;5080570;28;20870;-81
2023/12/04 11:02:35;;;;;;;0.30;0.30;;;6.20;91.90;;;;;;5078660;28;20199;-81
2023/12/04 11:05:16;;;;;;;0.30;0.30;;;6.10;92.10;;;;;;5087349;28;20783;-81
2023/12/04 11:07:47;;;;;;;0.30;0.20;;;6.00;92.20;;;;;;5081369;28;20188;-74
2023/12/04 11:10:13;;;;;;;0.30;0.30;;;5.90;92.20;;;;;;5082616;28;20220;-74
2023/12/04 11:12:45;;;;;;;0.30;0.30;;;5.80;92.20;;;;;;5091647;28;20500;-74
2023/12/04 11:15:16;;;;;;;0.30;0.20;;;5.80;92.30;;;;;;5087605;28;20564;-81
2023/12/04 11:17:47;;;;;;;0.30;0.30;;;5.70;92.20;;;;;;5083566;28;20639;-75
2023/12/04 11:20:18;;;;;;;0.30;0.20;;;5.50;92.80;;;;;;5085127;28;20198;-74
2023/12/04 11:22:47;;;;;;;0.30;0.30;;;5.40;93.20;;;;;;5080329;28;20184;-75
2023/12/04 11:25:15;;;;;;;0.30;0.30;;;5.40;93.40;;;;;;5081776;28;20191;-74
2023/12/04 11:27:42;;;;;;;0.30;0.30;;;5.50;93.10;;;;;;5081453;28;20216;-74
2023/12/04 11:30:12;;;;;;;0.30;0.30;;;5.50;93.60;;;;;;5080256;28;20241;-80
2023/12/04 11:32:49;;;;;;;0.30;0.30;;;5.60;93.40;;;;;;5084527;28;20208;-74
2023/12/04 11:35:17;;;;;;;0.30;0.20;;;5.70;93.80;;;;;;5079873;28;20212;-81
2023/12/04 11:37:44;;;;;;;0.30;0.30;;;5.70;93.50;;;;;;5076070;28;20477;-79
2023/12/04 11:40:15;;;;;;;0.30;0.20;;;5.80;93.80;;;;;;5075104;28;20265;-81
2023/12/04 11:42:41;;;;;;;0.30;0.30;;;5.80;94.00;;;;;;5075075;28;20985;-81
2023/12/04 11:45:08;;;;;;;0.30;0.20;;;5.90;94.20;;;;;;5074399;28;21005;-80
2023/12/04 11:47:55;;;;;;;0.30;0.30;;;6.00;94.20;;;;;;5078790;28;20181;-80
2023/12/04 11:50:22;;;;;;;0.30;0.30;;;6.00;94.20;;;;;;5079335;28;20225;-81
2023/12/04 11:52:48;;;;;;;0.30;0.30;;;6.00;94.20;;;;;;5086070;28;20807;-81
2023/12/04 11:55:19;;;;;;;0.30;0.30;;;5.90;94.00;;;;;;5086661;28;20195;-74
2023/12/04 11:57:46;;;;;;;0.30;0.30;;;5.90;93.60;;;;;;5078419;28;20283;-80
2023/12/04 12:00:19;;;;;;;0.30;0.30;;;5.80;94.20;;;;;;5073471;28;20192;-74
2023/12/04 12:02:54;;;;;;;0.30;0.30;;;5.80;94.50;;;;;;5074218;28;20603;-74
2023/12/04 12:05:20;;;;;;;0.43;0.43;;;5.70;95.00;;;;;;5076726;28;20199;-80
2023/12/04 12:07:46;;;;;;;0.30;0.30;;;5.70;95.00;;;;;;5073337;28;20191;-74
2023/12/04 12:10:13;;;;;;;0.30;0.23;;;5.80;94.60;;;;;;5077247;28;20546;-80
2023/12/04 12:12:40;;;;;;;0.30;0.20;;;5.80;94.50;;;;;;5075764;28;20188;-75
2023/12/04 12:15:11;;;;;;;0.30;0.30;;;5.80;94.50;;;;;;5068417;28;20188;-74
2023/12/04 12:17:41;;;;;;;0.30;0.30;;;5.80;94.60;;;;;;5073594;28;20184;-81
2023/12/04 12:20:09;;;;;;;0.30;0.30;;;5.70;95.00;;;;;;5070970;28;20280;-74
2023/12/04 12:22:36;;;;;;;0.30;0.30;;;5.60;94.60;;;;;;5077804;28;20603;-81
2023/12/04 12:25:04;;;;;;;0.30;0.30;;;5.50;95.00;;;;;;5078108;28;20212;-74
2023/12/04 12:27:30;;;;;;;0.30;0.30;;;5.50;95.20;;;;;;5078733;28;20643;-74
2023/12/04 12:29:56;;;;;;;0.30;0.30;;;5.50;95.40;;;;;;5081950;28;20215;-74
2023/12/04 12:32:22;;;;;;;0.30;0.20;;;5.40;95.70;;;;;;5079042;28;20414;-80
2023/12/04 12:34:47;;;;;;;0.30;0.30;;;5.40;95.30;;;;;;5080505;28;20721;-81
2023/12/04 12:37:13;;;;;;;0.30;0.20;;;5.40;95.80;;;;;;5078580;28;20179;-81
2023/12/04 12:39:40;;;;;;;0.30;0.30;;;5.40;95.60;;;;;;5079661;28;20311;-74
2023/12/04 12:42:06;;;;;;;0.30;0.30;;;5.30;95.70;;;;;;5081568;28;20176;-80
2023/12/04 12:44:42;;;;;;;0.30;0.30;;;5.30;96.10;;;;;;5083625;28;20551;-81
2023/12/04 12:47:08;;;;;;;0.30;0.30;;;5.30;96.10;;;;;;5081719;28;20403;-81